sensor_id;sensor_type;location;lat;lon;timestamp;P1;durP1;ratioP1;P2;durP2;ratioP2
78084;SDS011;67541;47.710;17.732;2023-02-14T00:01:42;13.15;;;7.00;;
78084;SDS011;67541;47.710;17.732;2023-02-14T00:04:09;12.23;;;5.50;;
78084;SDS011;67541;47.710;17.732;2023-02-14T00:06:35;12.20;;;6.47;;
78084;SDS011;67541;47.710;17.732;2023-02-14T00:09:24;12.32;;;6.78;;
78084;SDS011;67541;47.710;17.732;2023-02-14T00:11:48;14.63;;;7.45;;
78084;SDS011;67541;47.710;17.732;2023-02-14T00:14:14;12.43;;;7.10;;
78084;SDS011;67541;47.710;17.732;2023-02-14T00:16:58;16.77;;;7.97;;
78084;SDS011;67541;47.710;17.732;2023-02-14T00:19:24;16.30;;;8.57;;
78084;SDS011;67541;47.710;17.732;2023-02-14T00:21:50;16.93;;;8.67;;
78084;SDS011;67541;47.710;17.732;2023-02-14T00:24:16;15.68;;;8.00;;
78084;SDS011;67541;47.710;17.732;2023-02-14T00:26:44;17.73;;;8.70;;
78084;SDS011;67541;47.710;17.732;2023-02-14T00:29:13;15.27;;;7.75;;
78084;SDS011;67541;47.710;17.732;2023-02-14T00:31:44;15.27;;;7.90;;
78084;SDS011;67541;47.710;17.732;2023-02-14T00:34:10;14.65;;;7.62;;
78084;SDS011;67541;47.710;17.732;2023-02-14T00:36:36;18.70;;;8.87;;
78084;SDS011;67541;47.710;17.732;2023-02-14T00:39:03;14.63;;;8.18;;
78084;SDS011;67541;47.710;17.732;2023-02-14T00:41:32;15.13;;;8.32;;
78084;SDS011;67541;47.710;17.732;2023-02-14T00:43:58;17.77;;;8.63;;
78084;SDS011;67541;47.710;17.732;2023-02-14T00:46:24;20.50;;;8.95;;
78084;SDS011;67541;47.710;17.732;2023-02-14T00:48:51;17.17;;;7.83;;
78084;SDS011;67541;47.710;17.732;2023-02-14T00:51:17;16.25;;;8.25;;
78084;SDS011;67541;47.710;17.732;2023-02-14T00:53:44;18.30;;;8.88;;
78084;SDS011;67541;47.710;17.732;2023-02-14T00:56:10;17.37;;;8.82;;
78084;SDS011;67541;47.710;17.732;2023-02-14T00:58:36;16.20;;;8.43;;
78084;SDS011;67541;47.710;17.732;2023-02-14T01:01:02;17.27;;;9.43;;
78084;SDS011;67541;47.710;17.732;2023-02-14T01:03:27;16.93;;;8.50;;
78084;SDS011;67541;47.710;17.732;2023-02-14T01:05:53;17.85;;;8.52;;
78084;SDS011;67541;47.710;17.732;2023-02-14T01:08:18;14.63;;;8.40;;
78084;SDS011;67541;47.710;17.732;2023-02-14T01:10:44;13.93;;;7.43;;
78084;SDS011;67541;47.710;17.732;2023-02-14T01:13:10;14.98;;;7.35;;
78084;SDS011;67541;47.710;17.732;2023-02-14T01:15:40;14.77;;;7.03;;
78084;SDS011;67541;47.710;17.732;2023-02-14T01:18:07;15.30;;;7.70;;
78084;SDS011;67541;47.710;17.732;2023-02-14T01:20:33;18.40;;;9.50;;
78084;SDS011;67541;47.710;17.732;2023-02-14T01:22:58;15.97;;;8.63;;
78084;SDS011;67541;47.710;17.732;2023-02-14T01:25:24;14.60;;;8.48;;
78084;SDS011;67541;47.710;17.732;2023-02-14T01:27:50;17.02;;;8.30;;
78084;SDS011;67541;47.710;17.732;2023-02-14T01:30:16;15.93;;;7.67;;
78084;SDS011;67541;47.710;17.732;2023-02-14T01:32:42;13.05;;;6.82;;
78084;SDS011;67541;47.710;17.732;2023-02-14T01:35:07;14.30;;;7.47;;
78084;SDS011;67541;47.710;17.732;2023-02-14T01:37:33;12.65;;;7.37;;
78084;SDS011;67541;47.710;17.732;2023-02-14T01:39:58;15.30;;;7.73;;
78084;SDS011;67541;47.710;17.732;2023-02-14T01:42:24;15.90;;;8.27;;
78084;SDS011;67541;47.710;17.732;2023-02-14T01:44:55;15.32;;;7.82;;
78084;SDS011;67541;47.710;17.732;2023-02-14T01:47:41;15.02;;;8.00;;
78084;SDS011;67541;47.710;17.732;2023-02-14T01:50:42;15.87;;;8.30;;
78084;SDS011;67541;47.710;17.732;2023-02-14T01:53:03;15.63;;;7.93;;
78084;SDS011;67541;47.710;17.732;2023-02-14T01:55:33;16.73;;;7.78;;
78084;SDS011;67541;47.710;17.732;2023-02-14T01:58:03;11.93;;;6.57;;
78084;SDS011;67541;47.710;17.732;2023-02-14T02:00:33;12.43;;;7.28;;
78084;SDS011;67541;47.710;17.732;2023-02-14T02:03:18;13.47;;;7.40;;
78084;SDS011;67541;47.710;17.732;2023-02-14T02:05:46;13.62;;;7.32;;
78084;SDS011;67541;47.710;17.732;2023-02-14T02:08:14;13.45;;;7.15;;
78084;SDS011;67541;47.710;17.732;2023-02-14T02:10:40;17.42;;;7.40;;
78084;SDS011;67541;47.710;17.732;2023-02-14T02:13:06;13.97;;;7.47;;
78084;SDS011;67541;47.710;17.732;2023-02-14T02:15:43;13.60;;;7.32;;
78084;SDS011;67541;47.710;17.732;2023-02-14T02:18:22;13.00;;;6.62;;
78084;SDS011;67541;47.710;17.732;2023-02-14T02:26:47;11.55;;;6.05;;
78084;SDS011;67541;47.710;17.732;2023-02-14T02:32:36;13.35;;;6.93;;
78084;SDS011;67541;47.710;17.732;2023-02-14T02:38:10;12.80;;;6.60;;
78084;SDS011;67541;47.710;17.732;2023-02-14T02:41:03;11.27;;;5.85;;
78084;SDS011;67541;47.710;17.732;2023-02-14T02:43:53;9.10;;;5.15;;
78084;SDS011;67541;47.710;17.732;2023-02-14T02:46:38;11.27;;;5.60;;
78084;SDS011;67541;47.710;17.732;2023-02-14T02:52:19;9.13;;;4.53;;
78084;SDS011;67541;47.710;17.732;2023-02-14T02:55:11;12.37;;;6.30;;
78084;SDS011;67541;47.710;17.732;2023-02-14T02:57:43;11.57;;;5.75;;
78084;SDS011;67541;47.710;17.732;2023-02-14T03:00:10;12.52;;;5.55;;
78084;SDS011;67541;47.710;17.732;2023-02-14T03:02:43;10.45;;;5.07;;
78084;SDS011;67541;47.710;17.732;2023-02-14T03:05:31;12.20;;;5.20;;
78084;SDS011;67541;47.710;17.732;2023-02-14T03:07:58;11.00;;;5.75;;
78084;SDS011;67541;47.710;17.732;2023-02-14T03:10:25;13.40;;;5.67;;
78084;SDS011;67541;47.710;17.732;2023-02-14T03:18:06;11.10;;;5.75;;
78084;SDS011;67541;47.710;17.732;2023-02-14T03:23:55;13.02;;;6.05;;
78084;SDS011;67541;47.710;17.732;2023-02-14T03:29:28;10.20;;;5.62;;
78084;SDS011;67541;47.710;17.732;2023-02-14T03:32:14;12.27;;;5.80;;
78084;SDS011;67541;47.710;17.732;2023-02-14T03:35:09;10.50;;;4.90;;
78084;SDS011;67541;47.710;17.732;2023-02-14T03:37:41;9.70;;;5.10;;
78084;SDS011;67541;47.710;17.732;2023-02-14T03:42:52;10.07;;;5.20;;
78084;SDS011;67541;47.710;17.732;2023-02-14T03:45:35;12.18;;;5.10;;
78084;SDS011;67541;47.710;17.732;2023-02-14T03:48:07;8.15;;;3.97;;
78084;SDS011;67541;47.710;17.732;2023-02-14T03:50:37;12.20;;;6.03;;
78084;SDS011;67541;47.710;17.732;2023-02-14T03:53:04;8.53;;;4.40;;
78084;SDS011;67541;47.710;17.732;2023-02-14T03:55:39;9.85;;;5.40;;
78084;SDS011;67541;47.710;17.732;2023-02-14T03:58:15;14.32;;;6.55;;
78084;SDS011;67541;47.710;17.732;2023-02-14T04:00:45;10.98;;;6.00;;
78084;SDS011;67541;47.710;17.732;2023-02-14T04:03:14;10.48;;;5.78;;
78084;SDS011;67541;47.710;17.732;2023-02-14T04:05:42;12.07;;;6.07;;
78084;SDS011;67541;47.710;17.732;2023-02-14T04:08:19;14.10;;;6.00;;
78084;SDS011;67541;47.710;17.732;2023-02-14T04:10:46;11.02;;;5.60;;
78084;SDS011;67541;47.710;17.732;2023-02-14T04:13:12;10.15;;;4.40;;
78084;SDS011;67541;47.710;17.732;2023-02-14T04:15:38;11.80;;;5.07;;
78084;SDS011;67541;47.710;17.732;2023-02-14T04:18:03;10.60;;;4.83;;
78084;SDS011;67541;47.710;17.732;2023-02-14T04:20:47;10.75;;;4.78;;
78084;SDS011;67541;47.710;17.732;2023-02-14T04:23:13;12.50;;;5.67;;
78084;SDS011;67541;47.710;17.732;2023-02-14T04:25:38;10.10;;;5.00;;
78084;SDS011;67541;47.710;17.732;2023-02-14T04:28:06;9.45;;;4.25;;
78084;SDS011;67541;47.710;17.732;2023-02-14T04:30:32;9.55;;;4.50;;
78084;SDS011;67541;47.710;17.732;2023-02-14T04:32:58;7.90;;;3.73;;
78084;SDS011;67541;47.710;17.732;2023-02-14T04:35:23;9.90;;;5.03;;
78084;SDS011;67541;47.710;17.732;2023-02-14T04:37:49;8.88;;;4.15;;
78084;SDS011;67541;47.710;17.732;2023-02-14T04:40:14;12.03;;;5.80;;
78084;SDS011;67541;47.710;17.732;2023-02-14T04:42:42;12.63;;;6.35;;
78084;SDS011;67541;47.710;17.732;2023-02-14T04:45:08;13.70;;;5.27;;
78084;SDS011;67541;47.710;17.732;2023-02-14T04:47:33;10.20;;;5.25;;
78084;SDS011;67541;47.710;17.732;2023-02-14T04:49:59;10.97;;;5.50;;
78084;SDS011;67541;47.710;17.732;2023-02-14T04:52:24;9.87;;;4.57;;
78084;SDS011;67541;47.710;17.732;2023-02-14T04:54:50;9.30;;;4.77;;
78084;SDS011;67541;47.710;17.732;2023-02-14T04:57:15;8.90;;;4.57;;
78084;SDS011;67541;47.710;17.732;2023-02-14T04:59:41;11.70;;;5.50;;
78084;SDS011;67541;47.710;17.732;2023-02-14T05:02:06;13.10;;;4.53;;
78084;SDS011;67541;47.710;17.732;2023-02-14T05:04:32;8.90;;;4.20;;
78084;SDS011;67541;47.710;17.732;2023-02-14T05:06:57;9.97;;;4.73;;
78084;SDS011;67541;47.710;17.732;2023-02-14T05:09:23;10.60;;;4.87;;
78084;SDS011;67541;47.710;17.732;2023-02-14T05:11:48;10.70;;;4.60;;
78084;SDS011;67541;47.710;17.732;2023-02-14T05:14:13;9.80;;;4.73;;
78084;SDS011;67541;47.710;17.732;2023-02-14T05:16:39;11.33;;;5.23;;
78084;SDS011;67541;47.710;17.732;2023-02-14T05:19:04;8.03;;;3.73;;
78084;SDS011;67541;47.710;17.732;2023-02-14T05:21:30;10.30;;;5.50;;
78084;SDS011;67541;47.710;17.732;2023-02-14T05:23:57;8.43;;;4.23;;
78084;SDS011;67541;47.710;17.732;2023-02-14T05:26:23;11.43;;;5.60;;
78084;SDS011;67541;47.710;17.732;2023-02-14T05:28:49;11.50;;;5.20;;
78084;SDS011;67541;47.710;17.732;2023-02-14T05:31:14;9.53;;;4.63;;
78084;SDS011;67541;47.710;17.732;2023-02-14T05:33:39;14.20;;;6.07;;
78084;SDS011;67541;47.710;17.732;2023-02-14T05:36:05;12.07;;;6.17;;
78084;SDS011;67541;47.710;17.732;2023-02-14T05:38:31;14.70;;;6.53;;
78084;SDS011;67541;47.710;17.732;2023-02-14T05:40:57;13.57;;;6.43;;
78084;SDS011;67541;47.710;17.732;2023-02-14T05:43:23;14.93;;;7.60;;
78084;SDS011;67541;47.710;17.732;2023-02-14T05:45:50;13.37;;;6.93;;
78084;SDS011;67541;47.710;17.732;2023-02-14T05:48:15;15.57;;;6.90;;
78084;SDS011;67541;47.710;17.732;2023-02-14T05:50:42;11.90;;;6.00;;
78084;SDS011;67541;47.710;17.732;2023-02-14T05:53:09;11.77;;;5.73;;
78084;SDS011;67541;47.710;17.732;2023-02-14T05:55:35;15.65;;;6.20;;
78084;SDS011;67541;47.710;17.732;2023-02-14T05:58:00;12.10;;;6.57;;
78084;SDS011;67541;47.710;17.732;2023-02-14T06:00:26;15.77;;;7.05;;
78084;SDS011;67541;47.710;17.732;2023-02-14T06:02:52;15.63;;;7.00;;
78084;SDS011;67541;47.710;17.732;2023-02-14T06:05:17;13.67;;;6.23;;
78084;SDS011;67541;47.710;17.732;2023-02-14T06:07:44;14.70;;;6.78;;
78084;SDS011;67541;47.710;17.732;2023-02-14T06:10:14;13.47;;;6.40;;
78084;SDS011;67541;47.710;17.732;2023-02-14T06:12:41;13.80;;;7.35;;
78084;SDS011;67541;47.710;17.732;2023-02-14T06:15:07;14.77;;;6.93;;
78084;SDS011;67541;47.710;17.732;2023-02-14T06:17:32;15.40;;;7.68;;
78084;SDS011;67541;47.710;17.732;2023-02-14T06:19:58;18.33;;;8.60;;
78084;SDS011;67541;47.710;17.732;2023-02-14T06:22:23;18.20;;;8.70;;
78084;SDS011;67541;47.710;17.732;2023-02-14T06:24:48;22.90;;;9.27;;
78084;SDS011;67541;47.710;17.732;2023-02-14T06:27:14;19.40;;;8.55;;
78084;SDS011;67541;47.710;17.732;2023-02-14T06:29:39;20.00;;;8.83;;
78084;SDS011;67541;47.710;17.732;2023-02-14T06:32:05;17.00;;;8.17;;
78084;SDS011;67541;47.710;17.732;2023-02-14T06:34:31;21.30;;;9.90;;
78084;SDS011;67541;47.710;17.732;2023-02-14T06:36:57;19.80;;;8.77;;
78084;SDS011;67541;47.710;17.732;2023-02-14T06:39:23;16.45;;;8.77;;
78084;SDS011;67541;47.710;17.732;2023-02-14T06:41:48;16.67;;;8.33;;
78084;SDS011;67541;47.710;17.732;2023-02-14T06:44:14;14.63;;;7.00;;
78084;SDS011;67541;47.710;17.732;2023-02-14T06:46:39;12.70;;;6.95;;
78084;SDS011;67541;47.710;17.732;2023-02-14T06:49:05;15.70;;;6.87;;
78084;SDS011;67541;47.710;17.732;2023-02-14T06:51:30;10.03;;;5.43;;
78084;SDS011;67541;47.710;17.732;2023-02-14T06:53:56;13.57;;;6.50;;
78084;SDS011;67541;47.710;17.732;2023-02-14T06:56:21;14.25;;;6.72;;
78084;SDS011;67541;47.710;17.732;2023-02-14T06:58:46;11.90;;;5.73;;
78084;SDS011;67541;47.710;17.732;2023-02-14T07:01:12;14.30;;;7.13;;
78084;SDS011;67541;47.710;17.732;2023-02-14T07:03:37;10.65;;;5.32;;
78084;SDS011;67541;47.710;17.732;2023-02-14T07:06:03;13.70;;;6.80;;
78084;SDS011;67541;47.710;17.732;2023-02-14T07:08:29;13.90;;;6.77;;
78084;SDS011;67541;47.710;17.732;2023-02-14T07:11:00;13.93;;;7.22;;
78084;SDS011;67541;47.710;17.732;2023-02-14T07:13:26;15.63;;;7.63;;
78084;SDS011;67541;47.710;17.732;2023-02-14T07:15:51;16.95;;;8.07;;
78084;SDS011;67541;47.710;17.732;2023-02-14T07:18:17;15.27;;;7.57;;
78084;SDS011;67541;47.710;17.732;2023-02-14T07:20:42;18.47;;;8.40;;
78084;SDS011;67541;47.710;17.732;2023-02-14T07:23:09;18.20;;;8.90;;
78084;SDS011;67541;47.710;17.732;2023-02-14T07:25:34;18.07;;;8.97;;
78084;SDS011;67541;47.710;17.732;2023-02-14T07:28:00;15.77;;;8.45;;
78084;SDS011;67541;47.710;17.732;2023-02-14T07:30:26;15.18;;;7.68;;
78084;SDS011;67541;47.710;17.732;2023-02-14T07:32:52;15.20;;;7.67;;
78084;SDS011;67541;47.710;17.732;2023-02-14T07:35:18;14.98;;;7.87;;
78084;SDS011;67541;47.710;17.732;2023-02-14T07:37:43;18.87;;;8.77;;
78084;SDS011;67541;47.710;17.732;2023-02-14T07:40:09;18.40;;;9.45;;
78084;SDS011;67541;47.710;17.732;2023-02-14T07:42:35;17.97;;;8.47;;
78084;SDS011;67541;47.710;17.732;2023-02-14T07:45:00;17.15;;;8.55;;
78084;SDS011;67541;47.710;17.732;2023-02-14T07:47:26;16.23;;;8.80;;
78084;SDS011;67541;47.710;17.732;2023-02-14T07:49:52;17.55;;;9.73;;
78084;SDS011;67541;47.710;17.732;2023-02-14T07:52:17;52.47;;;24.07;;
78084;SDS011;67541;47.710;17.732;2023-02-14T07:54:43;38.90;;;17.77;;
78084;SDS011;67541;47.710;17.732;2023-02-14T07:57:08;73.87;;;35.73;;
78084;SDS011;67541;47.710;17.732;2023-02-14T07:59:33;28.65;;;16.50;;
78084;SDS011;67541;47.710;17.732;2023-02-14T08:01:59;17.03;;;9.23;;
78084;SDS011;67541;47.710;17.732;2023-02-14T08:04:24;18.47;;;9.30;;
78084;SDS011;67541;47.710;17.732;2023-02-14T08:06:50;19.23;;;9.97;;
78084;SDS011;67541;47.710;17.732;2023-02-14T08:09:17;23.15;;;11.32;;
78084;SDS011;67541;47.710;17.732;2023-02-14T08:11:55;19.48;;;10.00;;
78084;SDS011;67541;47.710;17.732;2023-02-14T08:14:41;19.45;;;10.40;;
78084;SDS011;67541;47.710;17.732;2023-02-14T08:17:12;16.83;;;8.80;;
78084;SDS011;67541;47.710;17.732;2023-02-14T08:19:38;16.57;;;8.97;;
78084;SDS011;67541;47.710;17.732;2023-02-14T08:22:07;16.27;;;9.07;;
78084;SDS011;67541;47.710;17.732;2023-02-14T08:24:38;34.25;;;16.17;;
78084;SDS011;67541;47.710;17.732;2023-02-14T08:27:09;21.52;;;10.38;;
78084;SDS011;67541;47.710;17.732;2023-02-14T08:29:59;18.73;;;10.13;;
78084;SDS011;67541;47.710;17.732;2023-02-14T08:32:26;19.57;;;10.97;;
78084;SDS011;67541;47.710;17.732;2023-02-14T08:35:25;23.38;;;11.77;;
78084;SDS011;67541;47.710;17.732;2023-02-14T08:37:53;19.45;;;10.23;;
78084;SDS011;67541;47.710;17.732;2023-02-14T08:40:21;19.75;;;9.70;;
78084;SDS011;67541;47.710;17.732;2023-02-14T08:42:47;19.20;;;8.33;;
78084;SDS011;67541;47.710;17.732;2023-02-14T08:45:12;17.87;;;9.20;;
78084;SDS011;67541;47.710;17.732;2023-02-14T08:47:38;16.67;;;9.07;;
78084;SDS011;67541;47.710;17.732;2023-02-14T08:50:05;21.87;;;10.23;;
78084;SDS011;67541;47.710;17.732;2023-02-14T08:52:35;20.40;;;9.93;;
78084;SDS011;67541;47.710;17.732;2023-02-14T08:55:02;18.57;;;10.10;;
78084;SDS011;67541;47.710;17.732;2023-02-14T08:57:28;16.30;;;8.13;;
78084;SDS011;67541;47.710;17.732;2023-02-14T08:59:54;23.37;;;10.70;;
78084;SDS011;67541;47.710;17.732;2023-02-14T09:02:19;20.83;;;9.75;;
78084;SDS011;67541;47.710;17.732;2023-02-14T09:04:48;17.77;;;8.73;;
78084;SDS011;67541;47.710;17.732;2023-02-14T09:07:19;18.40;;;8.93;;
78084;SDS011;67541;47.710;17.732;2023-02-14T09:10:02;19.77;;;9.52;;
78084;SDS011;67541;47.710;17.732;2023-02-14T09:12:30;22.70;;;11.38;;
78084;SDS011;67541;47.710;17.732;2023-02-14T09:15:05;26.90;;;11.15;;
78084;SDS011;67541;47.710;17.732;2023-02-14T09:17:36;19.77;;;9.80;;
78084;SDS011;67541;47.710;17.732;2023-02-14T09:20:12;24.30;;;9.70;;
78084;SDS011;67541;47.710;17.732;2023-02-14T09:22:42;19.90;;;9.23;;
78084;SDS011;67541;47.710;17.732;2023-02-14T09:25:10;20.98;;;10.80;;
78084;SDS011;67541;47.710;17.732;2023-02-14T09:27:36;19.87;;;9.88;;
78084;SDS011;67541;47.710;17.732;2023-02-14T09:30:08;19.57;;;9.97;;
78084;SDS011;67541;47.710;17.732;2023-02-14T09:32:34;21.40;;;10.68;;
78084;SDS011;67541;47.710;17.732;2023-02-14T09:35:03;19.12;;;9.48;;
78084;SDS011;67541;47.710;17.732;2023-02-14T09:37:29;23.10;;;12.35;;
78084;SDS011;67541;47.710;17.732;2023-02-14T09:39:54;21.20;;;11.00;;
78084;SDS011;67541;47.710;17.732;2023-02-14T09:45:31;24.75;;;11.15;;
78084;SDS011;67541;47.710;17.732;2023-02-14T09:50:45;126.47;;;41.65;;
78084;SDS011;67541;47.710;17.732;2023-02-14T09:53:28;142.87;;;58.80;;
78084;SDS011;67541;47.710;17.732;2023-02-14T09:59:00;89.37;;;44.55;;
78084;SDS011;67541;47.710;17.732;2023-02-14T10:01:32;37.72;;;19.67;;
78084;SDS011;67541;47.710;17.732;2023-02-14T10:12:49;31.08;;;14.63;;
78084;SDS011;67541;47.710;17.732;2023-02-14T10:15:20;18.90;;;9.70;;
78084;SDS011;67541;47.710;17.732;2023-02-14T10:22:53;24.55;;;9.95;;
78084;SDS011;67541;47.710;17.732;2023-02-14T10:25:39;20.50;;;8.95;;
78084;SDS011;67541;47.710;17.732;2023-02-14T10:28:11;17.35;;;7.72;;
78084;SDS011;67541;47.710;17.732;2023-02-14T10:30:39;17.75;;;9.07;;
78084;SDS011;67541;47.710;17.732;2023-02-14T10:33:24;20.57;;;9.97;;
78084;SDS011;67541;47.710;17.732;2023-02-14T10:35:59;28.02;;;12.20;;
78084;SDS011;67541;47.710;17.732;2023-02-14T10:43:53;17.62;;;8.27;;
78084;SDS011;67541;47.710;17.732;2023-02-14T10:46:48;17.27;;;8.30;;
78084;SDS011;67541;47.710;17.732;2023-02-14T10:54:53;18.50;;;9.57;;
78084;SDS011;67541;47.710;17.732;2023-02-14T11:00:03;16.73;;;9.10;;
78084;SDS011;67541;47.710;17.732;2023-02-14T11:02:32;19.70;;;10.52;;
78084;SDS011;67541;47.710;17.732;2023-02-14T11:05:01;18.17;;;9.32;;
78084;SDS011;67541;47.710;17.732;2023-02-14T11:07:28;20.17;;;9.55;;
78084;SDS011;67541;47.710;17.732;2023-02-14T11:09:54;14.60;;;6.93;;
78084;SDS011;67541;47.710;17.732;2023-02-14T11:12:31;16.10;;;7.47;;
78084;SDS011;67541;47.710;17.732;2023-02-14T11:17:43;18.70;;;8.73;;
78084;SDS011;67541;47.710;17.732;2023-02-14T11:22:46;17.15;;;8.38;;
78084;SDS011;67541;47.710;17.732;2023-02-14T11:25:21;15.57;;;8.15;;
78084;SDS011;67541;47.710;17.732;2023-02-14T11:27:47;18.05;;;8.65;;
78084;SDS011;67541;47.710;17.732;2023-02-14T11:30:21;16.60;;;8.27;;
78084;SDS011;67541;47.710;17.732;2023-02-14T11:32:51;16.33;;;7.85;;
78084;SDS011;67541;47.710;17.732;2023-02-14T11:35:20;21.30;;;9.40;;
78084;SDS011;67541;47.710;17.732;2023-02-14T11:37:54;15.00;;;8.98;;
78084;SDS011;67541;47.710;17.732;2023-02-14T11:42:51;17.90;;;9.27;;
78084;SDS011;67541;47.710;17.732;2023-02-14T11:45:34;17.62;;;8.70;;
78084;SDS011;67541;47.710;17.732;2023-02-14T11:48:17;14.55;;;7.75;;
78084;SDS011;67541;47.710;17.732;2023-02-14T11:56:07;30.77;;;11.90;;
78084;SDS011;67541;47.710;17.732;2023-02-14T11:58:36;44.92;;;17.58;;
78084;SDS011;67541;47.710;17.732;2023-02-14T12:01:05;27.30;;;13.23;;
78084;SDS011;67541;47.710;17.732;2023-02-14T12:03:38;21.05;;;10.35;;
78084;SDS011;67541;47.710;17.732;2023-02-14T12:06:08;20.52;;;10.07;;
78084;SDS011;67541;47.710;17.732;2023-02-14T12:08:35;17.12;;;8.98;;
78084;SDS011;67541;47.710;17.732;2023-02-14T12:11:22;17.87;;;9.05;;
78084;SDS011;67541;47.710;17.732;2023-02-14T12:14:07;19.90;;;10.53;;
78084;SDS011;67541;47.710;17.732;2023-02-14T12:16:46;20.23;;;9.82;;
78084;SDS011;67541;47.710;17.732;2023-02-14T12:19:23;17.02;;;8.90;;
78084;SDS011;67541;47.710;17.732;2023-02-14T12:22:14;18.67;;;10.18;;
78084;SDS011;67541;47.710;17.732;2023-02-14T12:24:55;36.47;;;16.33;;
78084;SDS011;67541;47.710;17.732;2023-02-14T12:30:34;16.00;;;8.90;;
78084;SDS011;67541;47.710;17.732;2023-02-14T12:32:59;15.73;;;8.15;;
78084;SDS011;67541;47.710;17.732;2023-02-14T12:43:49;17.87;;;8.95;;
78084;SDS011;67541;47.710;17.732;2023-02-14T13:02:54;13.02;;;7.32;;
78084;SDS011;67541;47.710;17.732;2023-02-14T13:19:03;15.53;;;8.50;;
78084;SDS011;67541;47.710;17.732;2023-02-14T13:21:39;16.60;;;9.20;;
78084;SDS011;67541;47.710;17.732;2023-02-14T13:26:37;16.73;;;9.60;;
78084;SDS011;67541;47.710;17.732;2023-02-14T13:29:09;18.65;;;9.68;;
78084;SDS011;67541;47.710;17.732;2023-02-14T13:31:39;15.57;;;8.50;;
78084;SDS011;67541;47.710;17.732;2023-02-14T13:34:07;13.80;;;8.63;;
78084;SDS011;67541;47.710;17.732;2023-02-14T13:36:43;15.23;;;9.15;;
78084;SDS011;67541;47.710;17.732;2023-02-14T13:39:11;14.60;;;8.38;;
78084;SDS011;67541;47.710;17.732;2023-02-14T13:42:03;46.13;;;21.65;;
78084;SDS011;67541;47.710;17.732;2023-02-14T13:49:46;17.62;;;10.13;;
78084;SDS011;67541;47.710;17.732;2023-02-14T13:55:22;16.85;;;9.38;;
78084;SDS011;67541;47.710;17.732;2023-02-14T13:58:06;17.07;;;9.70;;
78084;SDS011;67541;47.710;17.732;2023-02-14T14:00:42;17.42;;;8.75;;
78084;SDS011;67541;47.710;17.732;2023-02-14T14:03:53;15.88;;;9.30;;
78084;SDS011;67541;47.710;17.732;2023-02-14T14:08:38;17.40;;;9.35;;
78084;SDS011;67541;47.710;17.732;2023-02-14T14:18:52;17.25;;;9.20;;
78084;SDS011;67541;47.710;17.732;2023-02-14T14:31:56;18.60;;;9.88;;
78084;SDS011;67541;47.710;17.732;2023-02-14T14:34:23;18.20;;;9.80;;
78084;SDS011;67541;47.710;17.732;2023-02-14T14:37:02;20.20;;;11.03;;
78084;SDS011;67541;47.710;17.732;2023-02-14T14:39:30;24.60;;;11.68;;
78084;SDS011;67541;47.710;17.732;2023-02-14T14:42:04;60.58;;;26.52;;
78084;SDS011;67541;47.710;17.732;2023-02-14T14:47:22;24.37;;;15.35;;
78084;SDS011;67541;47.710;17.732;2023-02-14T14:50:02;22.70;;;11.80;;
78084;SDS011;67541;47.710;17.732;2023-02-14T14:54:58;18.25;;;10.27;;
78084;SDS011;67541;47.710;17.732;2023-02-14T14:57:26;21.73;;;12.23;;
78084;SDS011;67541;47.710;17.732;2023-02-14T15:03:02;36.25;;;15.88;;
78084;SDS011;67541;47.710;17.732;2023-02-14T15:05:36;31.52;;;16.00;;
78084;SDS011;67541;47.710;17.732;2023-02-14T15:10:38;22.03;;;12.00;;
78084;SDS011;67541;47.710;17.732;2023-02-14T15:13:04;24.08;;;12.77;;
78084;SDS011;67541;47.710;17.732;2023-02-14T15:15:48;22.92;;;11.88;;
78084;SDS011;67541;47.710;17.732;2023-02-14T15:18:15;26.00;;;12.93;;
78084;SDS011;67541;47.710;17.732;2023-02-14T15:20:41;23.45;;;11.60;;
78084;SDS011;67541;47.710;17.732;2023-02-14T15:23:16;26.37;;;13.02;;
78084;SDS011;67541;47.710;17.732;2023-02-14T15:25:44;25.23;;;13.10;;
78084;SDS011;67541;47.710;17.732;2023-02-14T15:28:33;26.25;;;13.13;;
78084;SDS011;67541;47.710;17.732;2023-02-14T15:31:02;25.47;;;11.93;;
78084;SDS011;67541;47.710;17.732;2023-02-14T15:33:29;22.70;;;11.80;;
78084;SDS011;67541;47.710;17.732;2023-02-14T15:35:58;22.33;;;12.27;;
78084;SDS011;67541;47.710;17.732;2023-02-14T15:38:27;22.17;;;12.10;;
78084;SDS011;67541;47.710;17.732;2023-02-14T15:40:54;22.87;;;11.20;;
78084;SDS011;67541;47.710;17.732;2023-02-14T15:43:28;23.77;;;11.17;;
78084;SDS011;67541;47.710;17.732;2023-02-14T15:48:50;29.98;;;16.33;;
78084;SDS011;67541;47.710;17.732;2023-02-14T15:51:20;31.62;;;16.27;;
78084;SDS011;67541;47.710;17.732;2023-02-14T15:53:52;24.73;;;14.32;;
78084;SDS011;67541;47.710;17.732;2023-02-14T15:56:28;27.03;;;12.30;;
78084;SDS011;67541;47.710;17.732;2023-02-14T15:59:02;24.25;;;12.40;;
78084;SDS011;67541;47.710;17.732;2023-02-14T16:01:31;28.12;;;14.55;;
78084;SDS011;67541;47.710;17.732;2023-02-14T16:03:59;26.55;;;13.57;;
78084;SDS011;67541;47.710;17.732;2023-02-14T16:06:34;30.42;;;13.62;;
78084;SDS011;67541;47.710;17.732;2023-02-14T16:09:22;30.93;;;15.30;;
78084;SDS011;67541;47.710;17.732;2023-02-14T16:11:50;27.90;;;13.80;;
78084;SDS011;67541;47.710;17.732;2023-02-14T16:14:30;28.87;;;14.15;;
78084;SDS011;67541;47.710;17.732;2023-02-14T16:22:01;51.57;;;24.33;;
78084;SDS011;67541;47.710;17.732;2023-02-14T16:24:26;57.87;;;24.27;;
78084;SDS011;67541;47.710;17.732;2023-02-14T16:26:53;93.68;;;32.90;;
78084;SDS011;67541;47.710;17.732;2023-02-14T16:29:20;62.13;;;26.45;;
78084;SDS011;67541;47.710;17.732;2023-02-14T16:31:47;96.53;;;33.47;;
78084;SDS011;67541;47.710;17.732;2023-02-14T16:34:15;75.90;;;25.07;;
78084;SDS011;67541;47.710;17.732;2023-02-14T16:36:41;89.62;;;26.55;;
78084;SDS011;67541;47.710;17.732;2023-02-14T16:39:14;127.22;;;34.05;;
78084;SDS011;67541;47.710;17.732;2023-02-14T16:41:45;119.13;;;36.70;;
78084;SDS011;67541;47.710;17.732;2023-02-14T16:44:13;75.70;;;30.45;;
78084;SDS011;67541;47.710;17.732;2023-02-14T16:46:40;98.47;;;40.80;;
78084;SDS011;67541;47.710;17.732;2023-02-14T16:49:05;73.43;;;30.87;;
78084;SDS011;67541;47.710;17.732;2023-02-14T16:51:31;92.93;;;33.07;;
78084;SDS011;67541;47.710;17.732;2023-02-14T16:53:59;134.15;;;41.30;;
78084;SDS011;67541;47.710;17.732;2023-02-14T16:56:32;175.02;;;51.28;;
78084;SDS011;67541;47.710;17.732;2023-02-14T16:59:03;86.35;;;28.90;;
78084;SDS011;67541;47.710;17.732;2023-02-14T17:01:29;62.87;;;26.43;;
78084;SDS011;67541;47.710;17.732;2023-02-14T17:03:56;60.97;;;26.10;;
78084;SDS011;67541;47.710;17.732;2023-02-14T17:06:22;75.80;;;32.67;;
78084;SDS011;67541;47.710;17.732;2023-02-14T17:08:51;98.57;;;44.47;;
78084;SDS011;67541;47.710;17.732;2023-02-14T17:11:19;101.00;;;47.38;;
78084;SDS011;67541;47.710;17.732;2023-02-14T17:13:45;100.22;;;45.58;;
78084;SDS011;67541;47.710;17.732;2023-02-14T17:16:12;91.87;;;41.95;;
78084;SDS011;67541;47.710;17.732;2023-02-14T17:18:39;82.63;;;39.73;;
78084;SDS011;67541;47.710;17.732;2023-02-14T17:21:07;77.80;;;36.40;;
78084;SDS011;67541;47.710;17.732;2023-02-14T17:23:33;132.75;;;42.95;;
78084;SDS011;67541;47.710;17.732;2023-02-14T17:25:59;126.90;;;51.50;;